createdAt,value
2023-05-17T00:00:54.154Z,0.00
2023-05-17T00:01:54.080Z,0.00
2023-05-17T00:02:54.955Z,0.00
2023-05-17T00:03:54.092Z,0.00
2023-05-17T00:04:54.203Z,0.00
2023-05-17T00:05:54.571Z,0.00
2023-05-17T00:06:54.234Z,0.00
2023-05-17T00:07:54.257Z,0.00
2023-05-17T00:08:54.252Z,0.00
2023-05-17T00:09:54.350Z,0.00
2023-05-17T00:10:54.350Z,0.00
2023-05-17T00:11:54.111Z,0.00
2023-05-17T00:12:53.962Z,0.00
2023-05-17T00:13:53.992Z,0.00
2023-05-17T00:14:53.961Z,0.00
2023-05-17T00:15:54.395Z,0.00
2023-05-17T00:16:53.982Z,0.00
2023-05-17T00:17:54.266Z,0.00
2023-05-17T00:18:54.308Z,0.00
2023-05-17T00:19:54.025Z,0.00
2023-05-17T00:20:54.127Z,0.00
2023-05-17T00:21:53.926Z,0.00
2023-05-17T00:22:53.930Z,0.00
2023-05-17T00:23:53.953Z,0.00
2023-05-17T00:24:53.958Z,0.00
2023-05-17T00:25:54.258Z,0.00
2023-05-17T00:26:53.912Z,0.00
2023-05-17T00:27:55.821Z,0.00
2023-05-17T00:28:53.975Z,0.00
2023-05-17T00:29:53.882Z,0.00
2023-05-17T00:30:53.906Z,0.00
2023-05-17T00:31:55.772Z,0.00
2023-05-17T00:32:53.948Z,0.00
2023-05-17T00:33:53.916Z,0.00
2023-05-17T00:34:53.955Z,0.00
2023-05-17T00:35:53.826Z,0.00
2023-05-17T00:36:53.992Z,0.00
2023-05-17T00:37:53.916Z,0.00
2023-05-17T00:38:53.814Z,0.00
2023-05-17T00:39:53.910Z,0.00
2023-05-17T00:40:53.918Z,0.00
2023-05-17T00:41:54.737Z,0.00
2023-05-17T00:42:54.133Z,0.00
2023-05-17T00:43:54.156Z,0.00
2023-05-17T00:44:54.717Z,0.00
2023-05-17T00:45:54.411Z,0.00
2023-05-17T00:46:54.281Z,0.00
2023-05-17T00:47:53.807Z,0.00
2023-05-17T00:48:54.268Z,0.00
2023-05-17T00:49:54.219Z,0.00
2023-05-17T00:50:53.714Z,0.00
2023-05-17T00:51:53.775Z,0.00
2023-05-17T00:52:53.764Z,0.00
2023-05-17T00:53:54.310Z,0.00
2023-05-17T00:54:54.353Z,0.00
2023-05-17T00:55:54.749Z,0.00
2023-05-17T00:56:53.793Z,0.00
2023-05-17T00:57:53.661Z,0.00
2023-05-17T00:58:53.777Z,0.00
2023-05-17T00:59:53.652Z,0.00
2023-05-17T01:00:53.658Z,0.00
2023-05-17T01:01:53.782Z,0.00
2023-05-17T01:02:53.829Z,0.00
2023-05-17T01:03:53.938Z,0.00
2023-05-17T01:04:53.907Z,0.00
2023-05-17T01:05:53.813Z,0.00
2023-05-17T01:06:53.823Z,0.00
2023-05-17T01:07:53.822Z,0.00
2023-05-17T01:08:53.852Z,0.00
2023-05-17T01:09:53.837Z,0.00
2023-05-17T01:10:53.850Z,0.00
2023-05-17T01:11:53.765Z,0.00
2023-05-17T01:12:53.867Z,0.00
2023-05-17T01:13:53.542Z,0.00
2023-05-17T01:14:53.555Z,0.00
2023-05-17T01:15:53.588Z,0.00
2023-05-17T01:16:53.656Z,0.00
2023-05-17T01:17:53.753Z,0.00
2023-05-17T01:18:53.860Z,0.00
2023-05-17T01:19:53.910Z,0.00
2023-05-17T01:20:53.510Z,0.00
2023-05-17T01:21:53.960Z,0.00
2023-05-17T01:22:53.934Z,0.00
2023-05-17T01:23:53.943Z,0.00
2023-05-17T01:24:53.540Z,0.00
2023-05-17T01:25:54.019Z,0.00
2023-05-17T01:26:53.736Z,0.00
2023-05-17T01:27:54.026Z,0.00
2023-05-17T01:28:54.038Z,0.00
2023-05-17T01:29:54.048Z,0.00
2023-05-17T01:30:54.048Z,0.00
2023-05-17T01:31:54.054Z,0.00
2023-05-17T01:32:53.792Z,0.00
2023-05-17T01:33:54.135Z,0.00
2023-05-17T01:34:54.231Z,0.00
2023-05-17T01:35:53.883Z,0.00
2023-05-17T01:36:54.242Z,0.00
2023-05-17T01:37:54.273Z,0.00
2023-05-17T01:38:54.249Z,0.00
2023-05-17T01:39:54.254Z,0.00
2023-05-17T01:40:54.227Z,0.00
2023-05-17T01:41:53.361Z,0.00
2023-05-17T01:42:54.280Z,0.00
2023-05-17T01:43:53.324Z,0.00
2023-05-17T01:44:53.349Z,0.00
2023-05-17T01:45:53.399Z,0.00
2023-05-17T01:46:53.445Z,0.00
2023-05-17T01:47:53.769Z,0.00
2023-05-17T01:48:53.581Z,0.00
2023-05-17T01:49:53.617Z,0.00
2023-05-17T01:50:53.683Z,0.00
2023-05-17T01:51:53.738Z,0.00
2023-05-17T01:52:53.799Z,0.00
2023-05-17T01:53:53.852Z,0.00
2023-05-17T01:54:53.910Z,0.00
2023-05-17T01:55:53.273Z,0.00
2023-05-17T01:56:53.293Z,0.00
2023-05-17T01:57:53.366Z,0.00
2023-05-17T01:58:53.435Z,0.00
2023-05-17T01:59:53.262Z,0.00
2023-05-17T02:00:53.223Z,0.00
2023-05-17T02:01:53.231Z,0.00
2023-05-17T02:02:53.278Z,0.00
2023-05-17T02:03:53.275Z,0.00
2023-05-17T02:04:53.321Z,0.00
2023-05-17T02:05:53.254Z,0.00
2023-05-17T02:06:53.270Z,0.00
2023-05-17T02:07:53.264Z,0.00
2023-05-17T02:08:53.278Z,0.00
2023-05-17T02:09:53.290Z,0.00
2023-05-17T02:10:53.313Z,0.00
2023-05-17T02:11:53.249Z,0.00
2023-05-17T02:12:53.327Z,0.00
2023-05-17T02:13:53.129Z,0.00
2023-05-17T02:14:53.122Z,0.00
2023-05-17T02:15:53.142Z,0.00
2023-05-17T02:16:53.196Z,0.00
2023-05-17T02:17:53.367Z,0.00
2023-05-17T02:18:53.437Z,0.00
2023-05-17T02:19:53.405Z,0.00
2023-05-17T02:20:53.465Z,0.00
2023-05-17T02:21:53.558Z,0.00
2023-05-17T02:22:53.535Z,0.00
2023-05-17T02:23:53.534Z,0.00
2023-05-17T02:24:53.561Z,0.00
2023-05-17T02:25:53.571Z,0.00
2023-05-17T02:26:53.748Z,0.00
2023-05-17T02:27:53.213Z,0.00
2023-05-17T02:28:53.078Z,0.00
2023-05-17T02:29:53.584Z,0.00
2023-05-17T02:30:53.607Z,0.00
2023-05-17T02:31:53.598Z,0.00
2023-05-17T02:32:53.632Z,0.00
2023-05-17T02:33:53.690Z,0.00
2023-05-17T02:34:53.658Z,0.00
2023-05-17T02:35:53.670Z,0.00
2023-05-17T02:36:53.014Z,0.00
2023-05-17T02:37:53.671Z,0.00
2023-05-17T02:38:53.860Z,0.00
2023-05-17T02:39:53.857Z,0.00
2023-05-17T02:40:53.845Z,0.00
2023-05-17T02:41:53.340Z,0.00
2023-05-17T02:42:52.947Z,0.00
2023-05-17T02:43:53.038Z,0.00
2023-05-17T02:44:53.204Z,0.00
2023-05-17T02:45:53.149Z,0.00
2023-05-17T02:46:53.260Z,0.00
2023-05-17T02:47:53.279Z,0.00
2023-05-17T02:48:52.956Z,0.00
2023-05-17T02:49:52.979Z,0.00
2023-05-17T02:50:52.926Z,0.00
2023-05-17T02:51:52.935Z,0.00
2023-05-17T02:52:52.972Z,0.00
2023-05-17T02:53:53.145Z,0.00
2023-05-17T02:54:53.202Z,0.00
2023-05-17T02:55:53.162Z,0.00
2023-05-17T02:56:53.278Z,0.00
2023-05-17T02:57:53.398Z,0.00
2023-05-17T02:58:53.384Z,0.00
2023-05-17T02:59:53.178Z,0.00
2023-05-17T03:00:52.985Z,0.00
2023-05-17T03:01:53.209Z,0.00
2023-05-17T03:02:52.959Z,0.00
2023-05-17T03:03:52.901Z,0.00
2023-05-17T03:04:53.638Z,0.00
2023-05-17T03:05:52.812Z,0.00
2023-05-17T03:06:52.838Z,0.00
2023-05-17T03:07:52.845Z,0.00
2023-05-17T03:08:53.710Z,0.00
2023-05-17T03:09:52.768Z,0.00
2023-05-17T03:10:53.780Z,0.00
2023-05-17T03:11:52.746Z,0.00
2023-05-17T03:12:52.734Z,0.00
2023-05-17T03:13:52.823Z,0.00
2023-05-17T03:14:52.835Z,0.00
2023-05-17T03:15:52.922Z,0.00
2023-05-17T03:16:52.893Z,0.00
2023-05-17T03:17:52.967Z,0.00
2023-05-17T03:18:52.997Z,0.00
2023-05-17T03:19:52.956Z,0.00
2023-05-17T03:20:52.914Z,0.00
2023-05-17T03:21:52.922Z,0.00
2023-05-17T03:22:52.939Z,0.00
2023-05-17T03:23:52.731Z,0.00
2023-05-17T03:24:52.678Z,0.00
2023-05-17T03:25:52.958Z,0.00
2023-05-17T03:26:52.965Z,0.00
2023-05-17T03:27:53.073Z,0.00
2023-05-17T03:28:52.998Z,0.00
2023-05-17T03:29:52.998Z,5.62
2023-05-17T03:30:53.031Z,5.62
2023-05-17T03:31:53.198Z,5.62
2023-05-17T03:32:53.266Z,5.62
2023-05-17T03:33:52.809Z,5.62
2023-05-17T03:34:53.216Z,5.62
2023-05-17T03:35:53.218Z,5.62
2023-05-17T03:36:53.253Z,5.62
2023-05-17T03:37:53.043Z,5.62
2023-05-17T03:38:53.248Z,11.25
2023-05-17T03:39:52.569Z,11.25
2023-05-17T03:40:52.581Z,11.25
2023-05-17T03:41:52.613Z,11.25
2023-05-17T03:42:52.688Z,11.25
2023-05-17T03:43:52.735Z,11.25
2023-05-17T03:44:52.684Z,16.88
2023-05-17T03:45:52.683Z,16.88
2023-05-17T03:46:52.686Z,16.88
2023-05-17T03:47:52.737Z,16.88
2023-05-17T03:48:52.556Z,16.88
2023-05-17T03:49:52.930Z,22.50
2023-05-17T03:50:52.952Z,22.50
2023-05-17T03:51:52.764Z,22.50
2023-05-17T03:52:52.969Z,22.50
2023-05-17T03:53:52.957Z,22.50
2023-05-17T03:54:52.775Z,22.50
2023-05-17T03:55:53.171Z,22.50
2023-05-17T03:56:53.182Z,28.12
2023-05-17T03:57:53.425Z,28.12
2023-05-17T03:58:53.191Z,28.12
2023-05-17T03:59:53.401Z,28.12
2023-05-17T04:00:52.653Z,28.12
2023-05-17T04:01:53.252Z,33.75
2023-05-17T04:02:53.240Z,33.75
2023-05-17T04:03:53.355Z,39.38
2023-05-17T04:04:52.440Z,39.38
2023-05-17T04:05:53.363Z,45.00
2023-05-17T04:06:53.273Z,45.00
2023-05-17T04:07:53.439Z,45.00
2023-05-17T04:08:52.433Z,45.00
2023-05-17T04:09:52.377Z,50.62
2023-05-17T04:10:52.383Z,50.62
2023-05-17T04:11:52.482Z,50.62
2023-05-17T04:12:52.491Z,50.62
2023-05-17T04:13:52.543Z,50.62
2023-05-17T04:14:52.622Z,50.62
2023-05-17T04:15:52.659Z,50.62
2023-05-17T04:16:52.344Z,56.25
2023-05-17T04:17:52.533Z,56.25
2023-05-17T04:18:52.486Z,61.88
2023-05-17T04:19:52.532Z,61.88
2023-05-17T04:20:52.937Z,61.88
2023-05-17T04:21:52.984Z,61.88
2023-05-17T04:22:53.037Z,67.50
2023-05-17T04:23:53.097Z,73.12
2023-05-17T04:24:53.085Z,73.12
2023-05-17T04:25:52.748Z,73.12
2023-05-17T04:26:53.048Z,73.12
2023-05-17T04:27:52.550Z,73.12
2023-05-17T04:28:53.207Z,73.12
2023-05-17T04:29:52.385Z,73.12
2023-05-17T04:30:53.274Z,73.12
2023-05-17T04:31:52.371Z,73.12
2023-05-17T04:32:52.314Z,78.75
2023-05-17T04:33:52.383Z,78.75
2023-05-17T04:34:52.208Z,78.75
2023-05-17T04:35:53.047Z,78.75
2023-05-17T04:36:53.205Z,78.75
2023-05-17T04:37:52.197Z,78.75
2023-05-17T04:38:52.162Z,78.75
2023-05-17T04:39:52.852Z,84.38
2023-05-17T04:40:52.173Z,78.75
2023-05-17T04:41:52.171Z,84.38
2023-05-17T04:42:52.149Z,84.38
2023-05-17T04:43:52.154Z,84.38
2023-05-17T04:44:52.165Z,84.38
2023-05-17T04:45:52.178Z,90.00
2023-05-17T04:46:52.189Z,90.00
2023-05-17T04:47:52.238Z,90.00
2023-05-17T04:48:52.236Z,90.00
2023-05-17T04:49:52.160Z,95.62
2023-05-17T04:50:52.247Z,95.62
2023-05-17T04:51:52.371Z,95.62
2023-05-17T04:52:52.269Z,95.62
2023-05-17T04:53:52.284Z,101.25
2023-05-17T04:54:52.178Z,101.25
2023-05-17T04:55:52.314Z,106.88
2023-05-17T04:56:52.326Z,106.88
2023-05-17T04:57:52.263Z,106.88
2023-05-17T04:58:53.104Z,106.88
2023-05-17T04:59:52.176Z,106.88
2023-05-17T05:00:52.396Z,106.88
2023-05-17T05:01:52.394Z,106.88
2023-05-17T05:02:52.468Z,112.50
2023-05-17T05:03:52.442Z,112.50
2023-05-17T05:04:52.477Z,112.50
2023-05-17T05:05:52.455Z,112.50
2023-05-17T05:06:52.471Z,112.50
2023-05-17T05:07:52.474Z,118.12
2023-05-17T05:08:52.065Z,118.12
2023-05-17T05:09:52.025Z,118.12
2023-05-17T05:10:52.090Z,118.12
2023-05-17T05:11:52.162Z,118.12
2023-05-17T05:12:52.236Z,123.75
2023-05-17T05:13:52.283Z,123.75
2023-05-17T05:14:52.354Z,123.75
2023-05-17T05:15:52.398Z,123.75
2023-05-17T05:16:52.446Z,123.75
2023-05-17T05:17:52.339Z,129.38
2023-05-17T05:18:52.142Z,129.38
2023-05-17T05:19:52.072Z,129.38
2023-05-17T05:20:52.038Z,129.38
2023-05-17T05:21:51.895Z,129.38
2023-05-17T05:22:51.905Z,129.38
2023-05-17T05:23:51.914Z,129.38
2023-05-17T05:24:51.931Z,129.38
2023-05-17T05:25:51.885Z,129.38
2023-05-17T05:26:51.854Z,129.38
2023-05-17T05:27:52.224Z,129.38
2023-05-17T05:28:51.957Z,135.00
2023-05-17T05:29:51.962Z,135.00
2023-05-17T05:30:51.958Z,135.00
2023-05-17T05:31:51.969Z,135.00
2023-05-17T05:32:52.034Z,135.00
2023-05-17T05:33:51.818Z,140.62
2023-05-17T05:36:17.923Z,140.62
2023-05-17T05:37:18.726Z,146.25
2023-05-17T05:38:17.825Z,146.25
2023-05-17T05:39:17.721Z,146.25
2023-05-17T05:40:17.745Z,151.88
2023-05-17T05:41:17.813Z,151.88
2023-05-17T05:42:17.862Z,146.25
2023-05-17T05:43:17.911Z,146.25
2023-05-17T05:44:18.665Z,146.25
2023-05-17T05:45:18.054Z,146.25
2023-05-17T05:46:18.116Z,146.25
2023-05-17T05:47:18.084Z,146.25
2023-05-17T05:48:18.141Z,151.88
2023-05-17T05:49:18.086Z,151.88
2023-05-17T05:50:17.698Z,151.88
2023-05-17T05:51:17.739Z,151.88
2023-05-17T05:52:18.117Z,151.88
2023-05-17T05:53:19.706Z,157.50
2023-05-17T05:54:18.117Z,157.50
2023-05-17T05:55:17.636Z,157.50
2023-05-17T05:56:18.137Z,163.12
2023-05-17T05:57:17.628Z,163.12
2023-05-17T05:58:18.144Z,168.75
2023-05-17T06:00:43.979Z,185.62
2023-05-17T06:01:43.993Z,196.88
2023-05-17T06:02:44.028Z,208.12
2023-05-17T06:03:43.639Z,213.75
2023-05-17T06:04:45.781Z,202.50
2023-05-17T06:05:44.249Z,196.88
2023-05-17T06:06:43.676Z,191.25
2023-05-17T06:07:43.535Z,185.62
2023-05-17T06:08:43.568Z,185.62
2023-05-17T06:09:43.680Z,185.62
2023-05-17T06:10:43.732Z,180.00
2023-05-17T06:11:43.728Z,180.00
2023-05-17T06:12:43.781Z,174.38
2023-05-17T06:13:43.489Z,174.38
2023-05-17T06:14:43.484Z,168.75
2023-05-17T06:15:43.480Z,163.12
2023-05-17T06:16:43.579Z,168.75
2023-05-17T06:17:43.555Z,174.38
2023-05-17T06:18:43.577Z,191.25
2023-05-17T06:19:43.486Z,208.12
2023-05-17T06:20:43.500Z,241.88
2023-05-17T06:21:43.491Z,275.62
2023-05-17T06:22:43.502Z,326.25
2023-05-17T06:23:43.505Z,292.50
2023-05-17T06:24:43.523Z,292.50
2023-05-17T06:25:43.510Z,270.00
2023-05-17T06:26:43.528Z,247.50
2023-05-17T06:27:43.575Z,219.38
2023-05-17T06:28:43.547Z,236.25
2023-05-17T06:29:43.603Z,236.25
2023-05-17T06:30:43.613Z,202.50
2023-05-17T06:31:43.602Z,225.00
2023-05-17T06:32:43.629Z,230.62
2023-05-17T06:33:43.634Z,230.62
2023-05-17T06:34:43.369Z,208.12
2023-05-17T06:35:55.493Z,247.50
2023-05-17T06:36:43.379Z,213.75
2023-05-17T06:37:43.389Z,219.38
2023-05-17T06:38:43.341Z,241.88
2023-05-17T06:39:47.977Z,286.88
2023-05-17T06:40:43.395Z,298.12
2023-05-17T06:41:43.452Z,303.75
2023-05-17T06:42:43.532Z,320.62
2023-05-17T06:43:43.571Z,337.50
2023-05-17T06:44:43.633Z,331.88
2023-05-17T06:45:43.344Z,399.38
2023-05-17T06:46:43.574Z,433.12
2023-05-17T06:47:43.877Z,438.75
2023-05-17T06:48:44.056Z,455.62
2023-05-17T06:49:43.912Z,500.62
2023-05-17T06:50:43.325Z,466.88
2023-05-17T06:51:43.286Z,444.38
2023-05-17T06:52:43.297Z,399.38
2023-05-17T06:53:43.305Z,348.75
2023-05-17T06:54:43.355Z,331.88
2023-05-17T06:55:43.934Z,399.38
2023-05-17T06:56:43.537Z,427.50
2023-05-17T06:57:43.182Z,421.88
2023-05-17T06:58:43.184Z,399.38
2023-05-17T06:59:43.177Z,388.12
2023-05-17T07:00:43.188Z,388.12
2023-05-17T07:01:43.158Z,433.12
2023-05-17T07:02:43.202Z,427.50
2023-05-17T07:03:43.208Z,393.75
2023-05-17T07:04:43.189Z,343.12
2023-05-17T07:05:43.294Z,303.75
2023-05-17T07:06:43.437Z,315.00
2023-05-17T07:07:43.169Z,292.50
2023-05-17T07:08:43.113Z,258.75
2023-05-17T07:09:43.191Z,241.88
2023-05-17T07:10:43.210Z,258.75
2023-05-17T07:11:43.259Z,258.75
2023-05-17T07:12:43.274Z,275.62
2023-05-17T07:13:43.286Z,286.88
2023-05-17T07:14:43.316Z,354.38
2023-05-17T07:15:43.255Z,343.12
2023-05-17T07:16:43.737Z,365.62
2023-05-17T07:17:43.467Z,416.25
2023-05-17T07:18:43.589Z,489.38
2023-05-17T07:19:43.591Z,472.50
2023-05-17T07:20:43.465Z,489.38
2023-05-17T07:21:43.485Z,478.12
2023-05-17T07:22:43.495Z,472.50
2023-05-17T07:23:43.493Z,382.50
2023-05-17T07:24:43.505Z,348.75
2023-05-17T07:25:43.090Z,331.88
2023-05-17T07:26:43.581Z,343.12
2023-05-17T07:27:43.518Z,382.50
2023-05-17T07:28:43.524Z,416.25
2023-05-17T07:29:43.530Z,405.00
2023-05-17T07:30:43.549Z,399.38
2023-05-17T07:31:43.259Z,410.62
2023-05-17T07:32:43.127Z,399.38
2023-05-17T07:33:43.554Z,393.75
2023-05-17T07:34:43.050Z,360.00
2023-05-17T07:35:43.021Z,331.88
2023-05-17T07:36:43.744Z,326.25
2023-05-17T07:37:42.960Z,343.12
2023-05-17T07:38:43.008Z,360.00
2023-05-17T07:39:42.899Z,388.12
2023-05-17T07:40:43.899Z,410.62
2023-05-17T07:41:43.200Z,444.38
2023-05-17T07:42:43.231Z,511.88
2023-05-17T07:43:43.287Z,568.12
2023-05-17T07:44:43.053Z,579.38
2023-05-17T07:45:42.859Z,579.38
2023-05-17T07:46:43.894Z,562.50
2023-05-17T07:47:42.943Z,500.62
2023-05-17T07:48:43.157Z,450.00
2023-05-17T07:49:42.846Z,433.12
2023-05-17T07:50:42.884Z,371.25
2023-05-17T07:51:43.728Z,365.62
2023-05-17T07:52:42.874Z,388.12
2023-05-17T07:53:42.872Z,410.62
2023-05-17T07:54:42.880Z,438.75
2023-05-17T07:55:43.806Z,461.25
2023-05-17T07:56:42.813Z,478.12
2023-05-17T07:57:42.896Z,506.25
2023-05-17T07:58:42.908Z,478.12
2023-05-17T07:59:42.916Z,433.12
2023-05-17T08:00:42.917Z,343.12
2023-05-17T08:01:42.926Z,292.50
2023-05-17T08:02:42.973Z,264.38
2023-05-17T08:03:42.937Z,264.38
2023-05-17T08:04:43.010Z,258.75
2023-05-17T08:05:42.785Z,281.25
2023-05-17T08:06:42.756Z,264.38
2023-05-17T08:07:42.718Z,264.38
2023-05-17T08:08:42.703Z,264.38
2023-05-17T08:09:42.858Z,275.62
2023-05-17T08:10:42.892Z,281.25
2023-05-17T08:11:42.957Z,303.75
2023-05-17T08:12:43.037Z,315.00
2023-05-17T08:13:43.015Z,326.25
2023-05-17T08:14:43.102Z,326.25
2023-05-17T08:15:43.122Z,331.88
2023-05-17T08:16:43.120Z,348.75
2023-05-17T08:17:42.752Z,410.62
2023-05-17T08:18:43.595Z,393.75
2023-05-17T08:19:43.458Z,433.12
2023-05-17T08:20:43.182Z,528.75
2023-05-17T08:21:42.701Z,568.12
2023-05-17T08:22:43.275Z,551.25
2023-05-17T08:23:43.271Z,596.25
2023-05-17T08:24:43.305Z,624.38
2023-05-17T08:25:43.290Z,590.62
2023-05-17T08:26:43.302Z,511.88
2023-05-17T08:27:43.328Z,410.62
2023-05-17T08:28:43.320Z,376.88
2023-05-17T08:29:43.339Z,371.25
2023-05-17T08:30:43.321Z,393.75
2023-05-17T08:31:42.713Z,416.25
2023-05-17T08:32:43.488Z,416.25
2023-05-17T08:33:43.392Z,410.62
2023-05-17T08:34:42.525Z,388.12
2023-05-17T08:35:42.538Z,360.00
2023-05-17T08:36:42.560Z,326.25
2023-05-17T08:37:42.551Z,298.12
2023-05-17T08:38:42.598Z,275.62
2023-05-17T08:39:42.679Z,253.12
2023-05-17T08:40:42.495Z,253.12
2023-05-17T08:41:42.710Z,258.75
2023-05-17T08:42:42.818Z,286.88
2023-05-17T08:43:42.885Z,292.50
2023-05-17T08:44:42.937Z,292.50
2023-05-17T08:45:43.008Z,298.12
2023-05-17T08:46:42.505Z,303.75
2023-05-17T08:47:42.513Z,320.62
2023-05-17T08:48:42.567Z,331.88
2023-05-17T08:49:42.641Z,360.00
2023-05-17T08:50:43.273Z,393.75
2023-05-17T08:51:42.460Z,438.75
2023-05-17T08:52:42.573Z,483.75
2023-05-17T08:53:42.732Z,551.25
2023-05-17T08:54:42.726Z,635.62
2023-05-17T08:55:43.719Z,697.50
2023-05-17T08:56:42.896Z,708.75
2023-05-17T08:57:42.886Z,635.62
2023-05-17T08:58:55.724Z,613.12
2023-05-17T08:59:42.384Z,568.12
2023-05-17T09:00:44.330Z,534.38
2023-05-17T09:01:42.412Z,495.00
2023-05-17T09:02:43.311Z,483.75
2023-05-17T09:03:42.408Z,455.62
2023-05-17T09:04:42.474Z,450.00
2023-05-17T09:05:42.385Z,461.25
2023-05-17T09:06:42.327Z,500.62
2023-05-17T09:07:42.317Z,534.38
2023-05-17T09:08:42.295Z,551.25
2023-05-17T09:09:42.350Z,545.62
2023-05-17T09:10:42.389Z,540.00
2023-05-17T09:11:42.456Z,528.75
2023-05-17T09:12:42.369Z,489.38
2023-05-17T09:13:42.483Z,472.50
2023-05-17T09:14:42.491Z,461.25
2023-05-17T09:15:42.497Z,466.88
2023-05-17T09:16:42.613Z,455.62
2023-05-17T09:17:42.469Z,427.50
2023-05-17T09:18:42.721Z,388.12
2023-05-17T09:19:42.801Z,354.38
2023-05-17T09:20:42.635Z,320.62
2023-05-17T09:21:42.532Z,348.75
2023-05-17T09:22:42.640Z,337.50
2023-05-17T09:23:43.591Z,326.25
2023-05-17T09:24:42.301Z,331.88
2023-05-17T09:27:08.291Z,365.62
2023-05-17T09:28:08.386Z,343.12
2023-05-17T09:29:08.395Z,388.12
2023-05-17T09:30:08.505Z,416.25
2023-05-17T09:31:08.512Z,376.88
2023-05-17T09:32:08.517Z,376.88
2023-05-17T09:33:08.648Z,371.25
2023-05-17T09:34:08.890Z,410.62
2023-05-17T09:35:08.115Z,376.88
2023-05-17T09:36:08.120Z,376.88
2023-05-17T09:37:08.063Z,388.12
2023-05-17T09:38:08.240Z,388.12
2023-05-17T09:39:08.250Z,393.75
2023-05-17T09:40:08.359Z,382.50
2023-05-17T09:41:08.414Z,376.88
2023-05-17T09:42:08.466Z,371.25
2023-05-17T09:43:08.548Z,365.62
2023-05-17T09:44:08.581Z,365.62
2023-05-17T09:45:08.078Z,376.88
2023-05-17T09:46:08.008Z,348.75
2023-05-17T09:47:07.998Z,382.50
2023-05-17T09:48:08.076Z,393.75
2023-05-17T09:49:08.005Z,405.00
2023-05-17T09:50:08.018Z,421.88
2023-05-17T09:51:08.025Z,444.38
2023-05-17T09:52:08.038Z,472.50
2023-05-17T09:53:08.035Z,506.25
2023-05-17T09:54:08.057Z,528.75
2023-05-17T09:55:08.058Z,562.50
2023-05-17T09:56:08.065Z,601.88
2023-05-17T09:57:08.065Z,624.38
2023-05-17T09:58:08.076Z,630.00
2023-05-17T09:59:08.079Z,585.00
2023-05-17T10:00:08.077Z,556.88
2023-05-17T10:01:08.083Z,613.12
2023-05-17T10:02:08.087Z,556.88
2023-05-17T10:03:08.355Z,635.62
2023-05-17T10:04:08.339Z,669.38
2023-05-17T10:05:08.017Z,675.00
2023-05-17T10:06:08.181Z,720.00
2023-05-17T10:07:07.874Z,720.00
2023-05-17T10:08:07.977Z,776.25
2023-05-17T10:09:07.955Z,781.88
2023-05-17T10:10:08.020Z,708.75
2023-05-17T10:11:08.076Z,669.38
2023-05-17T10:12:07.890Z,613.12
2023-05-17T10:13:08.201Z,579.38
2023-05-17T10:14:08.069Z,551.25
2023-05-17T10:15:08.021Z,540.00
2023-05-17T10:16:08.259Z,511.88
2023-05-17T10:17:08.278Z,523.12
2023-05-17T10:18:08.364Z,500.62
2023-05-17T10:19:08.405Z,461.25
2023-05-17T10:20:07.932Z,421.88
2023-05-17T10:21:07.815Z,405.00
2023-05-17T10:22:21.651Z,399.38
2023-05-17T10:23:07.780Z,421.88
2023-05-17T10:24:07.845Z,455.62
2023-05-17T10:25:07.755Z,523.12
2023-05-17T10:26:07.923Z,573.75
2023-05-17T10:27:07.978Z,607.50
2023-05-17T10:28:08.020Z,663.75
2023-05-17T10:29:08.071Z,742.50
2023-05-17T10:30:08.104Z,720.00
2023-05-17T10:31:08.222Z,641.25
2023-05-17T10:32:08.189Z,568.12
2023-05-17T10:33:07.838Z,579.38
2023-05-17T10:34:07.752Z,646.88
2023-05-17T10:35:13.905Z,686.25
2023-05-17T10:36:07.682Z,736.88
2023-05-17T10:37:07.749Z,810.00
2023-05-17T10:38:07.800Z,838.12
2023-05-17T10:39:07.868Z,922.50
2023-05-17T10:40:07.944Z,905.62
2023-05-17T10:41:07.980Z,843.75
2023-05-17T10:42:14.689Z,736.88
2023-05-17T10:43:08.120Z,658.12
2023-05-17T10:44:08.209Z,613.12
2023-05-17T10:45:08.241Z,573.75
2023-05-17T10:46:07.695Z,568.12
2023-05-17T10:47:08.371Z,596.25
2023-05-17T10:48:08.528Z,641.25
2023-05-17T10:49:08.500Z,691.88
2023-05-17T10:50:07.933Z,748.12
2023-05-17T10:51:08.515Z,787.50
2023-05-17T10:52:08.411Z,821.25
2023-05-17T10:53:08.564Z,1035.00
2023-05-17T10:54:08.485Z,1546.88
2023-05-17T10:55:07.941Z,1063.12
2023-05-17T10:56:08.536Z,691.88
2023-05-17T10:57:09.086Z,691.88
2023-05-17T10:58:07.828Z,731.25
2023-05-17T10:59:07.558Z,1462.50
2023-05-17T11:00:08.164Z,3740.62
2023-05-17T11:01:14.281Z,4021.88
2023-05-17T11:02:08.474Z,759.38
2023-05-17T11:03:08.666Z,720.00
2023-05-17T11:04:07.549Z,556.88
2023-05-17T11:05:08.604Z,483.75
2023-05-17T11:06:12.761Z,472.50
2023-05-17T11:07:09.777Z,523.12
2023-05-17T11:08:07.547Z,2964.38
2023-05-17T11:09:07.613Z,3960.00
2023-05-17T11:10:07.659Z,3976.88
2023-05-17T11:11:07.743Z,3763.12
2023-05-17T11:12:07.759Z,4145.62
2023-05-17T11:13:07.813Z,939.38
2023-05-17T11:14:07.901Z,1012.50
2023-05-17T11:15:08.647Z,720.00
2023-05-17T11:16:08.008Z,646.88
2023-05-17T11:17:08.038Z,618.75
2023-05-17T11:18:13.152Z,613.12
2023-05-17T11:19:07.551Z,624.38
2023-05-17T11:20:07.559Z,635.62
2023-05-17T11:21:07.541Z,3088.12
2023-05-17T11:22:07.376Z,871.88
2023-05-17T11:23:07.378Z,2998.12
2023-05-17T11:24:07.390Z,3431.25
2023-05-17T11:25:07.338Z,3442.50
2023-05-17T11:26:15.425Z,3701.25
2023-05-17T11:27:07.442Z,3960.00
2023-05-17T11:28:07.489Z,3870.00
2023-05-17T11:29:07.464Z,3763.12
2023-05-17T11:30:07.289Z,4021.88
2023-05-17T11:31:07.615Z,4224.38
2023-05-17T11:32:09.227Z,4016.25
2023-05-17T11:33:17.157Z,2081.25
2023-05-17T11:34:07.361Z,3099.38
2023-05-17T11:36:33.393Z,1080.00
2023-05-17T11:37:33.315Z,3993.75
2023-05-17T11:38:33.506Z,742.50
2023-05-17T11:39:33.557Z,613.12
2023-05-17T11:40:33.606Z,714.38
2023-05-17T11:41:33.682Z,3926.25
2023-05-17T11:42:33.752Z,3830.62
2023-05-17T11:43:33.367Z,3746.25
2023-05-17T11:44:33.867Z,4095.00
2023-05-17T11:45:33.887Z,4387.50
2023-05-17T11:46:33.936Z,4432.50
2023-05-17T11:47:34.080Z,4635.00
2023-05-17T11:48:34.123Z,2199.38
2023-05-17T11:49:35.563Z,1186.88
2023-05-17T11:50:34.072Z,933.75
2023-05-17T11:51:33.903Z,4275.00
2023-05-17T11:52:34.145Z,945.00
2023-05-17T11:53:34.033Z,4207.50
2023-05-17T11:54:33.955Z,4494.38
2023-05-17T11:55:33.113Z,4477.50
2023-05-17T11:56:42.767Z,1001.25
2023-05-17T11:57:33.413Z,4505.62
2023-05-17T11:58:33.731Z,2385.00
2023-05-17T11:59:33.602Z,4213.12
2023-05-17T12:00:33.328Z,1035.00
2023-05-17T12:01:33.656Z,742.50
2023-05-17T12:02:33.253Z,652.50
2023-05-17T12:03:33.130Z,646.88
2023-05-17T12:04:33.356Z,725.62
2023-05-17T12:05:33.111Z,618.75
2023-05-17T12:06:33.203Z,601.88
2023-05-17T12:07:33.206Z,618.75
2023-05-17T12:08:33.048Z,669.38
2023-05-17T12:09:33.093Z,860.62
2023-05-17T12:10:34.779Z,1051.88
2023-05-17T12:11:33.492Z,3673.12
2023-05-17T12:12:33.026Z,1546.88
2023-05-17T12:13:33.002Z,3346.88
2023-05-17T12:14:33.101Z,1361.25
2023-05-17T12:15:33.468Z,2919.38
2023-05-17T12:16:33.299Z,3594.38
2023-05-17T12:17:33.389Z,3819.38
2023-05-17T12:18:33.927Z,3701.25
2023-05-17T12:19:33.416Z,3470.62
2023-05-17T12:20:33.643Z,3493.12
2023-05-17T12:21:33.809Z,3358.12
2023-05-17T12:22:33.102Z,3571.88
2023-05-17T12:23:33.428Z,4252.50
2023-05-17T12:24:33.763Z,4404.38
2023-05-17T12:25:33.031Z,4280.62
2023-05-17T12:26:33.347Z,4314.38
2023-05-17T12:27:33.389Z,4280.62
2023-05-17T12:28:33.072Z,4325.62
2023-05-17T12:29:33.266Z,2767.50
2023-05-17T12:30:33.565Z,1473.75
2023-05-17T12:31:32.895Z,1181.25
2023-05-17T12:32:32.937Z,1237.50
2023-05-17T12:33:33.005Z,4185.00
2023-05-17T12:34:33.006Z,3054.38
2023-05-17T12:35:33.089Z,933.75
2023-05-17T12:36:33.102Z,759.38
2023-05-17T12:37:34.825Z,658.12
2023-05-17T12:38:33.065Z,618.75
2023-05-17T12:39:33.288Z,585.00
2023-05-17T12:40:33.356Z,585.00
2023-05-17T12:41:32.836Z,714.38
2023-05-17T12:42:33.252Z,3836.25
2023-05-17T12:43:33.516Z,703.12
2023-05-17T12:44:32.810Z,821.25
2023-05-17T12:45:33.169Z,928.12
2023-05-17T12:46:33.343Z,2790.00
2023-05-17T12:47:32.823Z,945.00
2023-05-17T12:48:33.103Z,933.75